createdAt,value
2023-02-08T00:01:27.588Z,104185.03
2023-02-08T00:04:30.452Z,104180.59
2023-02-08T00:07:33.493Z,104187.72
2023-02-08T00:10:36.673Z,104185.91
2023-02-08T00:13:41.954Z,104177.91
2023-02-08T00:16:46.499Z,104169.91
2023-02-08T00:19:49.335Z,104166.38
2023-02-08T00:22:53.421Z,104165.47
2023-02-08T00:25:56.335Z,104163.69
2023-02-08T00:29:00.278Z,104168.16
2023-02-08T00:32:05.077Z,104169.00
2023-02-08T00:35:08.738Z,104181.47
2023-02-08T00:38:11.655Z,104175.25
2023-02-08T00:41:14.492Z,104176.16
2023-02-08T00:44:17.309Z,104177.03
2023-02-08T00:47:22.215Z,104171.72
2023-02-08T00:50:25.072Z,104173.47
2023-02-08T00:53:28.091Z,104172.59
2023-02-08T00:56:30.951Z,104180.59
2023-02-08T00:59:35.648Z,104183.28
2023-02-08T01:02:40.559Z,104182.38
2023-02-08T01:05:43.365Z,104177.03
2023-02-08T01:08:46.323Z,104188.59
2023-02-08T01:11:49.205Z,104183.25
2023-02-08T01:14:52.119Z,104193.94
2023-02-08T01:17:56.944Z,104189.50
2023-02-08T01:21:05.615Z,104195.72
2023-02-08T01:24:09.206Z,104194.84
2023-02-08T01:27:12.126Z,104196.59
2023-02-08T01:30:15.186Z,104190.41
2023-02-08T01:33:19.371Z,104192.16
2023-02-08T01:36:22.590Z,104185.94
2023-02-08T01:39:25.433Z,104184.16
2023-02-08T01:42:28.610Z,104188.59
2023-02-08T01:45:33.544Z,104190.38
2023-02-08T01:48:41.955Z,104187.69
2023-02-08T01:51:49.031Z,104187.69
2023-02-08T01:54:55.830Z,104178.84
2023-02-08T01:58:01.960Z,104176.16
2023-02-08T02:01:05.839Z,104175.28
2023-02-08T02:04:11.454Z,104175.28
2023-02-08T02:07:15.408Z,104177.03
2023-02-08T02:10:22.417Z,104169.94
2023-02-08T02:13:27.558Z,104168.16
2023-02-08T02:16:30.588Z,104162.84
2023-02-08T02:19:41.624Z,104167.28
2023-02-08T02:23:22.513Z,104170.84
2023-02-08T02:26:54.414Z,104169.94
2023-02-08T02:30:40.873Z,104163.72
2023-02-08T02:33:54.553Z,104163.72
2023-02-08T02:37:07.466Z,104157.47
2023-02-08T02:40:19.281Z,104166.38
2023-02-08T02:43:41.710Z,104172.56
2023-02-08T02:46:51.310Z,104177.03
2023-02-08T02:50:03.097Z,104172.56
2023-02-08T02:53:11.459Z,104179.69
2023-02-08T02:56:18.545Z,104185.00
2023-02-08T02:59:22.687Z,104189.47
2023-02-08T03:02:27.011Z,104187.69
2023-02-08T03:05:31.640Z,104190.34
2023-02-08T03:09:05.319Z,104195.69
2023-02-08T03:12:24.188Z,104193.03
2023-02-08T03:15:35.528Z,104198.34
2023-02-08T03:18:48.034Z,104198.34
2023-02-08T03:21:57.995Z,104198.34
2023-02-08T03:25:03.923Z,104189.47
2023-02-08T03:28:16.891Z,104194.81
2023-02-08T03:31:26.200Z,104197.47
2023-02-08T03:34:37.141Z,104201.94
2023-02-08T03:37:46.649Z,104195.69
2023-02-08T03:40:54.198Z,104191.25
2023-02-08T03:44:01.696Z,104185.97
2023-02-08T03:47:10.992Z,104193.06
2023-02-08T03:50:18.478Z,104189.53
2023-02-08T03:53:25.166Z,104191.31
2023-02-08T03:56:35.476Z,104193.97
2023-02-08T03:59:40.968Z,104189.53
2023-02-08T04:02:50.478Z,104189.53
2023-02-08T04:05:53.876Z,104193.06
2023-02-08T04:08:58.068Z,104187.75
2023-02-08T04:12:00.957Z,104190.41
2023-02-08T04:15:03.973Z,104200.19
2023-02-08T04:18:07.104Z,104198.38
2023-02-08T04:21:09.982Z,104201.97
2023-02-08T04:24:14.168Z,104198.41
2023-02-08T04:27:16.981Z,104201.94
2023-02-08T04:30:19.821Z,104199.28
2023-02-08T04:33:22.680Z,104207.28
2023-02-08T04:36:25.526Z,104201.94
2023-02-08T04:39:29.753Z,104207.28
2023-02-08T04:42:32.538Z,104199.25
2023-02-08T04:45:35.333Z,104201.91
2023-02-08T04:48:38.441Z,104188.56
2023-02-08T04:51:41.339Z,104191.25
2023-02-08T04:54:45.523Z,104186.81
2023-02-08T04:57:48.397Z,104193.03
2023-02-08T05:00:51.200Z,104195.69
2023-02-08T05:03:54.151Z,104196.59
2023-02-08T05:06:57.024Z,104187.69
2023-02-08T05:10:01.330Z,104186.78
2023-02-08T05:13:04.265Z,104188.59
2023-02-08T05:16:07.593Z,104185.91
2023-02-08T05:19:11.865Z,104193.91
2023-02-08T05:22:14.687Z,104186.78
2023-02-08T05:25:19.139Z,104185.91
2023-02-08T05:28:22.204Z,104185.91
2023-02-08T05:31:27.042Z,104185.91
2023-02-08T05:34:29.920Z,104201.91
2023-02-08T05:37:32.767Z,104192.13
2023-02-08T05:40:36.965Z,104200.13
2023-02-08T05:43:39.815Z,104197.44
2023-02-08T05:46:42.668Z,104195.69
2023-02-08T05:49:45.603Z,104196.59
2023-02-08T05:52:48.404Z,104204.59
2023-02-08T05:55:52.627Z,104205.47
2023-02-08T05:58:55.443Z,104203.72
2023-02-08T06:01:58.267Z,104217.91
2023-02-08T06:05:01.107Z,104230.38
2023-02-08T06:08:04.079Z,104226.81
2023-02-08T06:11:08.652Z,104235.72
2023-02-08T06:14:11.448Z,104228.59
2023-02-08T06:17:14.240Z,104231.25
2023-02-08T06:20:17.245Z,104230.34
2023-02-08T06:23:20.576Z,104229.47
2023-02-08T06:26:24.798Z,104229.44
2023-02-08T06:29:27.703Z,104234.75
2023-02-08T06:32:30.714Z,104230.25
2023-02-08T06:35:33.798Z,104232.00
2023-02-08T06:38:37.180Z,104232.84
2023-02-08T06:41:41.495Z,104233.75
2023-02-08T06:44:54.360Z,104234.66
2023-02-08T06:47:57.681Z,104235.63
2023-02-08T06:51:00.613Z,104236.56
2023-02-08T06:54:03.405Z,104241.97
2023-02-08T06:57:08.469Z,104244.69
2023-02-08T07:00:12.719Z,104246.53
2023-02-08T07:03:17.412Z,104235.03
2023-02-08T07:06:21.379Z,104236.81
2023-02-08T07:09:24.404Z,104237.72
2023-02-08T07:12:29.037Z,104239.50
2023-02-08T07:15:31.891Z,104242.19
2023-02-08T07:18:35.553Z,104242.19
2023-02-08T07:21:38.347Z,104245.75
2023-02-08T07:24:42.550Z,104251.97
2023-02-08T07:27:46.903Z,104248.44
2023-02-08T07:30:49.835Z,104255.50
2023-02-08T07:33:52.694Z,104257.31
2023-02-08T07:36:55.735Z,104260.84
2023-02-08T07:39:58.539Z,104268.84
2023-02-08T07:43:03.167Z,104269.72
2023-02-08T07:46:18.840Z,104277.72
2023-02-08T07:49:21.783Z,104264.34
2023-02-08T07:52:24.715Z,104270.59
2023-02-08T07:55:27.667Z,104270.59
2023-02-08T07:58:32.216Z,104274.13
2023-02-08T08:01:35.251Z,104286.53
2023-02-08T08:04:38.195Z,104285.59
2023-02-08T08:07:41.109Z,104282.94
2023-02-08T08:10:44.964Z,104282.94
2023-02-08T08:13:49.450Z,104282.06
2023-02-08T08:16:52.304Z,104279.38
2023-02-08T08:19:55.146Z,104288.25
2023-02-08T08:22:59.520Z,104280.22
2023-02-08T08:26:07.882Z,104274.00
2023-02-08T08:29:12.168Z,104279.34
2023-02-08T08:32:15.007Z,104268.66
2023-02-08T08:35:18.072Z,104262.44
2023-02-08T08:38:21.024Z,104260.63
2023-02-08T08:41:26.788Z,104268.66
2023-02-08T08:44:31.592Z,104272.19
2023-02-08T08:47:35.028Z,104265.06
2023-02-08T08:50:39.280Z,104263.28
2023-02-08T08:53:42.472Z,104249.94
2023-02-08T08:56:45.512Z,104262.41
2023-02-08T08:59:49.757Z,104269.50
2023-02-08T09:02:52.623Z,104260.63
2023-02-08T09:05:55.512Z,104257.03
2023-02-08T09:08:58.483Z,104256.19
2023-02-08T09:12:01.446Z,104258.81
2023-02-08T09:15:06.487Z,104259.72
2023-02-08T09:18:09.264Z,104260.59
2023-02-08T09:21:14.035Z,104257.06
2023-02-08T09:24:18.333Z,104256.16
2023-02-08T09:27:21.192Z,104262.38
2023-02-08T09:30:25.860Z,104255.25
2023-02-08T09:33:28.829Z,104249.91
2023-02-08T09:36:34.705Z,104242.81
2023-02-08T09:39:37.572Z,104248.16
2023-02-08T09:42:44.411Z,104241.94
2023-02-08T09:45:59.822Z,104243.72
2023-02-08T09:49:05.968Z,104240.16
2023-02-08T09:52:14.469Z,104235.72
2023-02-08T09:55:29.206Z,104228.59
2023-02-08T09:58:36.925Z,104227.69
2023-02-08T10:01:41.152Z,104224.16
2023-02-08T10:05:00.156Z,104221.47
2023-02-08T10:08:10.159Z,104212.56
2023-02-08T10:11:30.661Z,104207.22
2023-02-08T10:15:04.174Z,104203.66
2023-02-08T10:18:24.398Z,104201.00
2023-02-08T10:21:42.079Z,104200.13
2023-02-08T10:25:04.947Z,104197.47
2023-02-08T10:28:25.536Z,104189.47
2023-02-08T10:31:39.468Z,104191.22
2023-02-08T10:34:46.965Z,104196.56
2023-02-08T10:37:49.899Z,104193.03
2023-02-08T10:40:56.714Z,104192.13
2023-02-08T10:44:05.894Z,104187.69
2023-02-08T10:47:17.907Z,104185.91
2023-02-08T10:50:29.844Z,104170.78
2023-02-08T10:53:33.108Z,104158.34
2023-02-08T10:56:42.289Z,104161.91
2023-02-08T10:59:50.631Z,104165.47
2023-02-08T11:02:55.584Z,104167.22
2023-02-08T11:05:59.793Z,104169.03
2023-02-08T11:09:02.655Z,104160.13
2023-02-08T11:12:05.751Z,104163.66
2023-02-08T11:15:22.867Z,104161.91
2023-02-08T11:18:28.741Z,104169.00
2023-02-08T11:21:34.965Z,104154.81
2023-02-08T11:24:41.481Z,104152.13
2023-02-08T11:27:49.856Z,104150.34
2023-02-08T11:30:57.937Z,104151.22
2023-02-08T11:34:03.545Z,104145.00
2023-02-08T11:37:16.913Z,104145.00
2023-02-08T11:40:23.844Z,104153.00
2023-02-08T11:43:29.403Z,104150.34
2023-02-08T11:46:35.176Z,104161.00
2023-02-08T11:49:40.472Z,104169.88
2023-02-08T11:52:46.191Z,104161.88
2023-02-08T11:56:04.019Z,104155.66
2023-02-08T11:59:20.178Z,104153.88
2023-02-08T12:02:37.931Z,104148.56
2023-02-08T12:05:52.787Z,104156.53
2023-02-08T12:09:04.424Z,104150.31
2023-02-08T12:12:15.708Z,104156.53
2023-02-08T12:15:28.729Z,104152.97
2023-02-08T12:18:47.529Z,104150.31
2023-02-08T12:21:58.740Z,104138.78
2023-02-08T12:25:21.955Z,104146.78
2023-02-08T12:28:37.979Z,104141.44
2023-02-08T12:32:00.597Z,104146.78
2023-02-08T12:35:36.943Z,104152.97
2023-02-08T12:39:25.987Z,104142.34
2023-02-08T12:42:41.329Z,104137.88
2023-02-08T12:46:31.677Z,104133.44
2023-02-08T12:49:55.369Z,104121.91
2023-02-08T12:53:02.838Z,104125.47
2023-02-08T12:56:12.527Z,104129.00
2023-02-08T12:59:26.351Z,104132.56
2023-02-08T13:02:35.374Z,104121.03
2023-02-08T13:05:50.764Z,104122.78
2023-02-08T13:09:07.084Z,104122.78
2023-02-08T13:12:15.283Z,104110.34
2023-02-08T13:15:30.624Z,104114.78
2023-02-08T13:18:53.923Z,104112.13
2023-02-08T13:21:58.700Z,104104.13
2023-02-08T13:25:08.454Z,104103.22
2023-02-08T13:28:19.822Z,104097.03
2023-02-08T13:31:27.342Z,104091.69
2023-02-08T13:34:34.857Z,104086.38
2023-02-08T13:37:38.006Z,104091.69
2023-02-08T13:40:41.291Z,104086.38
2023-02-08T13:43:49.676Z,104081.88
2023-02-08T13:46:54.044Z,104078.34
2023-02-08T13:50:00.862Z,104078.34
2023-02-08T13:53:04.444Z,104081.91
2023-02-08T13:56:10.424Z,104077.47
2023-02-08T13:59:37.450Z,104069.44
2023-02-08T14:03:00.022Z,104060.56
2023-02-08T14:06:07.235Z,104067.69
2023-02-08T14:09:21.147Z,104061.47
2023-02-08T14:12:32.118Z,104058.78
2023-02-08T14:15:39.319Z,104065.00
2023-02-08T14:18:52.653Z,104061.47
2023-02-08T14:22:03.877Z,104056.13
2023-02-08T14:25:09.111Z,104058.81
2023-02-08T14:28:26.677Z,104053.47
2023-02-08T14:31:44.715Z,104042.81
2023-02-08T14:34:50.148Z,104042.81
2023-02-08T14:38:33.276Z,104025.91
2023-02-08T14:41:48.018Z,104033.00
2023-02-08T14:45:05.875Z,104029.44
2023-02-08T14:48:20.140Z,104032.13
2023-02-08T14:51:32.080Z,104032.13
2023-02-08T14:54:42.832Z,104027.69
2023-02-08T14:57:45.735Z,104025.88
2023-02-08T15:00:53.314Z,104027.69
2023-02-08T15:04:01.736Z,104020.53
2023-02-08T15:07:22.831Z,104011.69
2023-02-08T15:10:28.548Z,104015.25
2023-02-08T15:13:32.164Z,104011.66
2023-02-08T15:16:37.747Z,104007.22
2023-02-08T15:19:43.211Z,103993.88
2023-02-08T15:22:47.502Z,103999.22
2023-02-08T15:25:56.928Z,103996.53
2023-02-08T15:29:00.884Z,103995.66
2023-02-08T15:32:03.923Z,103996.53
2023-02-08T15:35:07.247Z,103982.34
2023-02-08T15:38:17.665Z,103985.00
2023-02-08T15:41:26.272Z,103979.69
2023-02-08T15:44:31.312Z,103980.56
2023-02-08T15:47:37.853Z,103968.13
2023-02-08T15:50:40.875Z,103967.22
2023-02-08T15:53:47.874Z,103959.22
2023-02-08T15:56:54.543Z,103953.88
2023-02-08T15:59:58.266Z,103963.69
2023-02-08T16:03:08.512Z,103953.88
2023-02-08T16:06:11.797Z,103950.31
2023-02-08T16:09:19.815Z,103955.66
2023-02-08T16:12:25.674Z,103963.69
2023-02-08T16:15:55.586Z,103954.81
2023-02-08T16:19:23.485Z,103955.69
2023-02-08T16:22:29.331Z,103954.78
2023-02-08T16:25:38.808Z,103949.47
2023-02-08T16:28:41.676Z,103949.47
2023-02-08T16:31:49.936Z,103944.13
2023-02-08T16:34:54.287Z,103941.44
2023-02-08T16:38:00.547Z,103945.03
2023-02-08T16:41:12.970Z,103945.00
2023-02-08T16:44:18.371Z,103941.44
2023-02-08T16:47:29.175Z,103945.03
2023-02-08T16:50:33.452Z,103940.56
2023-02-08T16:53:42.252Z,103955.66
2023-02-08T16:56:46.785Z,103946.78
2023-02-08T16:59:49.667Z,103946.78
2023-02-08T17:02:53.663Z,103953.00
2023-02-08T17:05:57.947Z,103952.09
2023-02-08T17:09:02.564Z,103952.09
2023-02-08T17:12:21.527Z,103949.47
2023-02-08T17:15:25.153Z,103943.25
2023-02-08T17:18:28.128Z,103942.34
2023-02-08T17:21:32.419Z,103946.78
2023-02-08T17:24:36.401Z,103944.13
2023-02-08T17:27:41.002Z,103948.56
2023-02-08T17:30:44.710Z,103945.91
2023-02-08T17:33:48.323Z,103938.78
2023-02-08T17:36:52.588Z,103944.13
2023-02-08T17:39:55.412Z,103940.56
2023-02-08T17:42:58.515Z,103929.91
2023-02-08T17:46:01.837Z,103929.88
2023-02-08T17:49:05.425Z,103937.91
2023-02-08T17:52:09.659Z,103936.13
2023-02-08T17:55:16.032Z,103934.31
2023-02-08T17:58:19.032Z,103926.34
2023-02-08T18:01:23.731Z,103922.78
2023-02-08T18:04:26.735Z,103916.56
2023-02-08T18:07:31.005Z,103915.69
2023-02-08T18:10:34.329Z,103909.47
2023-02-08T18:13:37.747Z,103910.34
2023-02-08T18:16:40.576Z,103907.69
2023-02-08T18:19:43.448Z,103895.22
2023-02-08T18:22:47.701Z,103900.56
2023-02-08T18:25:52.124Z,103902.38
2023-02-08T18:28:55.269Z,103903.25
2023-02-08T18:31:58.315Z,103891.69
2023-02-08T18:35:03.594Z,103895.25
2023-02-08T18:38:08.281Z,103889.91
2023-02-08T18:41:12.671Z,103888.13
2023-02-08T18:44:15.573Z,103879.25
2023-02-08T18:47:18.525Z,103885.47
2023-02-08T18:50:21.383Z,103877.47
2023-02-08T18:53:27.240Z,103862.38
2023-02-08T18:56:30.346Z,103867.69
2023-02-08T18:59:33.743Z,103855.25
2023-02-08T19:02:39.391Z,103855.25
2023-02-08T19:05:42.949Z,103855.25
2023-02-08T19:08:47.624Z,103841.91
2023-02-08T19:11:50.459Z,103834.81
2023-02-08T19:14:53.331Z,103844.59
2023-02-08T19:17:57.915Z,103837.47
2023-02-08T19:21:04.796Z,103837.47
2023-02-08T19:24:09.152Z,103833.06
2023-02-08T19:27:12.462Z,103828.59
2023-02-08T19:30:17.178Z,103820.59
2023-02-08T19:33:20.020Z,103819.72
2023-02-08T19:36:24.920Z,103817.06
2023-02-08T19:39:29.227Z,103821.50
2023-02-08T19:42:32.169Z,103817.06
2023-02-08T19:45:36.600Z,103816.16
2023-02-08T19:48:39.731Z,103814.38
2023-02-08T19:51:43.001Z,103817.94
2023-02-08T19:54:47.503Z,103809.94
2023-02-08T19:57:50.373Z,103809.91
2023-02-08T20:00:53.865Z,103804.59
2023-02-08T20:03:57.255Z,103805.50
2023-02-08T20:07:00.184Z,103817.94
2023-02-08T20:10:04.881Z,103820.59
2023-02-08T20:13:08.007Z,103809.03
2023-02-08T20:16:10.939Z,103809.06
2023-02-08T20:19:13.859Z,103801.06
2023-02-08T20:22:16.793Z,103799.28
2023-02-08T20:25:21.466Z,103788.59
2023-02-08T20:28:24.444Z,103786.81
2023-02-08T20:31:30.158Z,103785.97
2023-02-08T20:34:33.165Z,103782.41
2023-02-08T20:37:35.993Z,103776.16
2023-02-08T20:40:40.589Z,103783.28
2023-02-08T20:43:44.822Z,103777.94
2023-02-08T20:46:47.666Z,103776.19
2023-02-08T20:49:50.719Z,103764.63
2023-02-08T20:52:53.614Z,103769.06
2023-02-08T20:55:57.921Z,103752.19
2023-02-08T20:59:03.553Z,103741.53
2023-02-08T21:02:06.538Z,103749.53
2023-02-08T21:05:09.438Z,103752.19
2023-02-08T21:08:12.304Z,103742.41
2023-02-08T21:11:16.447Z,103739.75
2023-02-08T21:14:21.322Z,103737.94
2023-02-08T21:17:24.155Z,103729.09
2023-02-08T21:20:27.025Z,103729.09
2023-02-08T21:23:30.059Z,103722.88
2023-02-08T21:26:34.619Z,103713.97
2023-02-08T21:29:37.415Z,103713.97
2023-02-08T21:32:41.744Z,103712.19
2023-02-08T21:35:44.534Z,103709.56
2023-02-08T21:38:47.823Z,103699.75
2023-02-08T21:41:55.492Z,103704.22
2023-02-08T21:44:59.440Z,103697.09
2023-02-08T21:48:02.341Z,103700.66
2023-02-08T21:51:23.346Z,103691.78
2023-02-08T21:54:44.472Z,103686.44
2023-02-08T21:57:48.948Z,103672.22
2023-02-08T22:00:51.778Z,103665.09
2023-02-08T22:03:54.827Z,103656.22
2023-02-08T22:06:57.757Z,103658.00
2023-02-08T22:10:00.603Z,103657.09
2023-02-08T22:13:05.359Z,103650.00
2023-02-08T22:16:09.225Z,103639.34
2023-02-08T22:19:12.144Z,103634.03
2023-02-08T22:22:15.067Z,103629.56
2023-02-08T22:25:18.991Z,103634.03
2023-02-08T22:28:23.589Z,103629.59
2023-02-08T22:31:26.647Z,103630.50
2023-02-08T22:34:29.923Z,103629.59
2023-02-08T22:37:33.753Z,103622.50
2023-02-08T22:40:36.652Z,103624.22
2023-02-08T22:43:40.925Z,103621.53
2023-02-08T22:46:43.891Z,103621.53
2023-02-08T22:49:46.937Z,103609.03
2023-02-08T22:52:49.789Z,103610.78
2023-02-08T22:55:53.599Z,103609.00
2023-02-08T22:58:59.580Z,103613.41
2023-02-08T23:02:02.711Z,103607.19
2023-02-08T23:05:05.896Z,103609.84
2023-02-08T23:08:09.185Z,103610.72
2023-02-08T23:11:13.456Z,103616.94
2023-02-08T23:14:17.702Z,103620.53
2023-02-08T23:17:20.522Z,103616.06
2023-02-08T23:20:23.288Z,103612.50
2023-02-08T23:23:26.146Z,103609.88
2023-02-08T23:26:28.967Z,103607.19
2023-02-08T23:29:33.192Z,103606.31
2023-02-08T23:32:36.036Z,103610.78
2023-02-08T23:35:41.648Z,103612.59
2023-02-08T23:38:44.936Z,103613.47
2023-02-08T23:41:47.903Z,103616.19
2023-02-08T23:44:52.088Z,103606.41
2023-02-08T23:47:54.933Z,103600.19
2023-02-08T23:50:58.607Z,103591.31
2023-02-08T23:54:01.476Z,103584.22
2023-02-08T23:57:04.829Z,103583.31
